Time;durP1;ratioP1;P1;durP2;ratioP2;P2;SDS_P1;SDS_P2;PMS_P1;PMS_P2;Temp;Humidity;BMP_temperature;BMP_pressure;BME280_temperature;BME280_humidity;BME280_pressure;Samples;Min_cycle;Max_cycle;Signal;HPM_P1;HPM_P2
2022/07/24 00:02:04;;;;;;;0.10;0.10;;;;;;;;;;5038730;28;20574;-88
2022/07/24 00:04:30;;;;;;;0.08;0.08;;;;;;;;;;5037290;28;20045;-88
2022/07/24 00:06:59;;;;;;;0.10;0.10;;;;;;;;;;5037939;28;20038;-87
2022/07/24 00:09:25;;;;;;;0.05;0.05;;;;;;;;;;5038381;28;20072;-88
2022/07/24 00:11:51;;;;;;;0.20;0.20;;;;;;;;;;5039251;28;20414;-89
2022/07/24 00:14:17;;;;;;;0.20;0.20;;;;;;;;;;5038180;28;20055;-88
2022/07/24 00:16:43;;;;;;;0.10;0.10;;;;;;;;;;5038424;28;20038;-89
2022/07/24 00:19:09;;;;;;;0.10;0.10;;;;;;;;;;5038090;28;20095;-88
2022/07/24 00:21:38;;;;;;;0.05;0.05;;;;;;;;;;5037391;28;20633;-87
2022/07/24 00:24:04;;;;;;;0.08;0.08;;;;;;;;;;5038193;28;20037;-87
2022/07/24 00:26:30;;;;;;;0.00;0.00;;;;;;;;;;5038824;28;20081;-89
2022/07/24 00:28:56;;;;;;;0.10;0.10;;;;;;;;;;5038154;28;20046;-89
2022/07/24 00:31:23;;;;;;;1.55;0.52;;;;;;;;;;5038699;28;20038;-88
2022/07/24 00:33:49;;;;;;;0.28;0.28;;;;;;;;;;5037780;28;20051;-88
2022/07/24 00:36:16;;;;;;;0.20;0.20;;;;;;;;;;5037507;28;20045;-88
2022/07/24 00:38:42;;;;;;;0.10;0.10;;;;;;;;;;5037249;28;20041;-88
2022/07/24 00:41:08;;;;;;;0.00;0.00;;;;;;;;;;5036873;28;20041;-88
2022/07/24 00:43:34;;;;;;;0.00;0.00;;;;;;;;;;5037172;28;20240;-87
2022/07/24 00:46:00;;;;;;;0.00;0.00;;;;;;;;;;5037466;28;20052;-88
2022/07/24 00:48:26;;;;;;;0.10;0.10;;;;;;;;;;5037417;28;20052;-89
2022/07/24 00:50:52;;;;;;;0.10;0.10;;;;;;;;;;5037439;28;20128;-89
2022/07/24 00:53:19;;;;;;;0.10;0.10;;;;;;;;;;5036829;28;20042;-88
2022/07/24 00:55:45;;;;;;;0.00;0.00;;;;;;;;;;5036410;28;20045;-88
2022/07/24 00:58:12;;;;;;;0.00;0.00;;;;;;;;;;5036545;28;20048;-88
2022/07/24 01:00:38;;;;;;;0.13;0.13;;;;;;;;;;5020033;28;20045;-89
2022/07/24 01:03:04;;;;;;;0.10;0.10;;;;;;;;;;5036727;28;20048;-89
2022/07/24 01:05:30;;;;;;;0.00;0.00;;;;;;;;;;5036665;28;20044;-88
2022/07/24 01:07:56;;;;;;;0.08;0.08;;;;;;;;;;5036673;28;20132;-88
2022/07/24 01:10:22;;;;;;;0.00;0.00;;;;;;;;;;5036917;28;20080;-89
2022/07/24 01:12:48;;;;;;;0.20;0.20;;;;;;;;;;5037478;28;20096;-88
2022/07/24 01:15:14;;;;;;;0.08;0.08;;;;;;;;;;5037498;28;20501;-89
2022/07/24 01:17:42;;;;;;;0.05;0.05;;;;;;;;;;5037120;28;20495;-89
2022/07/24 01:20:08;;;;;;;0.10;0.10;;;;;;;;;;5037690;28;20060;-88
2022/07/24 01:22:34;;;;;;;0.10;0.10;;;;;;;;;;5038109;28;20101;-89
2022/07/24 01:25:00;;;;;;;1.85;1.65;;;;;;;;;;5037237;28;20045;-89
2022/07/24 01:27:26;;;;;;;0.10;0.10;;;;;;;;;;5037003;28;20038;-88
2022/07/24 01:29:53;;;;;;;0.10;0.10;;;;;;;;;;5036113;28;20041;-88
2022/07/24 01:32:19;;;;;;;0.10;0.10;;;;;;;;;;5034525;28;20045;-88
2022/07/24 01:34:45;;;;;;;0.17;0.17;;;;;;;;;;5036598;28;20046;-87
2022/07/24 01:37:11;;;;;;;0.05;0.05;;;;;;;;;;5036189;28;20088;-88
2022/07/24 01:39:37;;;;;;;0.05;0.05;;;;;;;;;;5036511;28;20128;-88
2022/07/24 01:42:03;;;;;;;0.10;0.10;;;;;;;;;;5036425;28;20038;-89
2022/07/24 01:44:29;;;;;;;0.20;0.20;;;;;;;;;;5037178;28;20038;-89
2022/07/24 01:46:55;;;;;;;0.05;0.05;;;;;;;;;;5036780;28;20128;-88
2022/07/24 01:49:22;;;;;;;0.10;0.10;;;;;;;;;;5036470;28;20434;-88
2022/07/24 01:51:48;;;;;;;0.03;0.03;;;;;;;;;;5035892;28;20041;-89
2022/07/24 01:54:14;;;;;;;0.00;0.00;;;;;;;;;;5036461;28;20175;-88
2022/07/24 01:56:40;;;;;;;0.10;0.10;;;;;;;;;;5035488;28;20048;-87
2022/07/24 01:59:06;;;;;;;0.10;0.10;;;;;;;;;;5035226;28;20411;-87
2022/07/24 02:01:34;;;;;;;0.00;0.00;;;;;;;;;;5035063;28;20402;-88
2022/07/24 02:04:00;;;;;;;0.00;0.00;;;;;;;;;;5018947;28;20073;-88
2022/07/24 02:06:26;;;;;;;0.10;0.10;;;;;;;;;;5034735;28;20037;-88
2022/07/24 02:08:52;;;;;;;0.05;0.05;;;;;;;;;;5035806;28;20084;-88
2022/07/24 02:11:19;;;;;;;0.10;0.10;;;;;;;;;;5034882;28;20048;-88
2022/07/24 02:13:45;;;;;;;0.10;0.10;;;;;;;;;;5019014;28;20105;-87
2022/07/24 02:16:11;;;;;;;0.03;0.03;;;;;;;;;;5035313;28;20107;-88
2022/07/24 02:18:37;;;;;;;0.10;0.10;;;;;;;;;;5035736;28;20037;-88
2022/07/24 02:21:03;;;;;;;0.10;0.10;;;;;;;;;;5035866;28;20052;-88
2022/07/24 02:23:29;;;;;;;0.00;0.00;;;;;;;;;;5035279;28;20045;-88
2022/07/24 02:25:55;;;;;;;0.10;0.10;;;;;;;;;;5035230;28;20136;-88
2022/07/24 02:28:21;;;;;;;0.17;0.17;;;;;;;;;;5035874;28;20049;-89
2022/07/24 02:30:49;;;;;;;0.00;0.00;;;;;;;;;;5035804;28;20048;-89
2022/07/24 02:33:15;;;;;;;0.20;0.20;;;;;;;;;;5019542;28;20038;-89
2022/07/24 02:35:41;;;;;;;0.05;0.05;;;;;;;;;;5035800;28;20056;-88
2022/07/24 02:38:07;;;;;;;0.10;0.10;;;;;;;;;;5035423;28;20038;-86
2022/07/24 02:40:33;;;;;;;0.10;0.10;;;;;;;;;;5035011;28;20037;-88
2022/07/24 02:42:59;;;;;;;0.10;0.10;;;;;;;;;;5034758;28;20038;-88
2022/07/24 02:45:25;;;;;;;0.13;0.13;;;;;;;;;;5038342;28;20037;-88
2022/07/24 02:47:52;;;;;;;0.10;0.10;;;;;;;;;;5039659;28;20053;-88
2022/07/24 02:50:18;;;;;;;0.10;0.10;;;;;;;;;;5039503;28;20037;-88
2022/07/24 02:52:45;;;;;;;0.10;0.10;;;;;;;;;;5005254;28;20128;-88
2022/07/24 02:55:11;;;;;;;0.10;0.10;;;;;;;;;;5039318;28;20045;-88
2022/07/24 02:57:37;;;;;;;0.20;0.20;;;;;;;;;;5038543;28;20037;-88
2022/07/24 03:00:06;;;;;;;0.10;0.10;;;;;;;;;;5038256;28;20083;-87
2022/07/24 03:02:32;;;;;;;0.10;0.10;;;;;;;;;;5022791;28;20402;-88
2022/07/24 03:04:58;;;;;;;0.10;0.10;;;;;;;;;;5039044;28;20100;-88
2022/07/24 03:07:24;;;;;;;0.00;0.00;;;;;;;;;;5039376;28;20048;-87
2022/07/24 03:09:50;;;;;;;0.03;0.03;;;;;;;;;;5039880;28;20095;-88
2022/07/24 03:12:19;;;;;;;0.13;0.13;;;;;;;;;;5007594;28;20041;-88
2022/07/24 03:14:46;;;;;;;0.10;0.10;;;;;;;;;;5040693;28;20529;-88
2022/07/24 03:17:12;;;;;;;0.00;0.00;;;;;;;;;;5039190;28;20042;-89
2022/07/24 03:19:38;;;;;;;0.10;0.10;;;;;;;;;;5039828;28;20064;-88
2022/07/24 03:22:05;;;;;;;0.15;0.15;;;;;;;;;;5038596;28;20033;-88
2022/07/24 03:24:31;;;;;;;0.10;0.10;;;;;;;;;;5039319;28;20049;-89
2022/07/24 03:26:57;;;;;;;0.00;0.00;;;;;;;;;;5039571;28;20399;-89
2022/07/24 03:29:23;;;;;;;0.10;0.10;;;;;;;;;;5039568;28;20577;-88
2022/07/24 03:31:49;;;;;;;0.10;0.10;;;;;;;;;;5039952;28;20069;-88
2022/07/24 03:34:15;;;;;;;0.10;0.10;;;;;;;;;;5038917;28;20091;-89
2022/07/24 03:36:41;;;;;;;0.03;0.03;;;;;;;;;;5039281;28;20041;-88
2022/07/24 03:39:07;;;;;;;0.10;0.10;;;;;;;;;;5038683;28;20042;-88
2022/07/24 03:41:33;;;;;;;0.13;0.13;;;;;;;;;;5039179;28;20037;-89
2022/07/24 03:43:59;;;;;;;0.20;0.20;;;;;;;;;;5038331;28;20049;-89
2022/07/24 03:46:28;;;;;;;0.00;0.00;;;;;;;;;;5038961;28;20123;-89
2022/07/24 03:48:54;;;;;;;0.10;0.10;;;;;;;;;;5022291;28;20042;-88
2022/07/24 03:51:21;;;;;;;0.00;0.00;;;;;;;;;;5038744;28;20044;-89
2022/07/24 03:53:47;;;;;;;0.20;0.20;;;;;;;;;;5038997;28;20042;-88
2022/07/24 03:56:13;;;;;;;0.17;0.17;;;;;;;;;;5038442;28;20411;-89
2022/07/24 03:58:39;;;;;;;0.00;0.00;;;;;;;;;;5038667;28;20045;-87
2022/07/24 04:01:05;;;;;;;0.15;0.15;;;;;;;;;;5005795;28;20517;-87
2022/07/24 04:03:31;;;;;;;0.03;0.03;;;;;;;;;;5037882;28;20045;-87
2022/07/24 04:05:57;;;;;;;0.00;0.00;;;;;;;;;;5037817;28;20561;-87
2022/07/24 04:08:23;;;;;;;0.10;0.10;;;;;;;;;;5038534;28;20411;-87
2022/07/24 04:10:56;;;;;;;0.00;0.00;;;;;;;;;;5038921;28;20033;-87
2022/07/24 04:13:22;;;;;;;0.20;0.20;;;;;;;;;;5022205;28;20380;-87
2022/07/24 04:15:48;;;;;;;0.15;0.15;;;;;;;;;;5037515;28;20052;-87
2022/07/24 04:18:14;;;;;;;0.20;0.20;;;;;;;;;;5037256;28;20046;-87
2022/07/24 04:20:41;;;;;;;0.13;0.13;;;;;;;;;;5037186;28;20034;-86
2022/07/24 04:23:07;;;;;;;0.20;0.20;;;;;;;;;;5036941;28;20045;-88
2022/07/24 04:25:34;;;;;;;0.10;0.10;;;;;;;;;;5037501;28;20041;-88
2022/07/24 04:28:00;;;;;;;0.10;0.10;;;;;;;;;;5021069;28;20506;-87
2022/07/24 04:30:26;;;;;;;0.00;0.00;;;;;;;;;;5037573;28;20037;-88
2022/07/24 04:32:53;;;;;;;0.10;0.10;;;;;;;;;;5037324;28;20045;-88
2022/07/24 04:35:19;;;;;;;0.10;0.10;;;;;;;;;;5036878;28;20048;-88
2022/07/24 04:37:45;;;;;;;0.10;0.10;;;;;;;;;;5037357;28;20029;-88
2022/07/24 04:40:12;;;;;;;0.08;0.08;;;;;;;;;;5021415;28;20049;-88
2022/07/24 04:42:38;;;;;;;0.00;0.00;;;;;;;;;;5038181;28;20120;-87
2022/07/24 04:45:05;;;;;;;0.10;0.10;;;;;;;;;;5020421;28;20107;-88
2022/07/24 04:47:31;;;;;;;0.10;0.10;;;;;;;;;;5037283;28;20081;-87
2022/07/24 04:49:57;;;;;;;0.03;0.03;;;;;;;;;;5036942;28;20495;-89
2022/07/24 04:52:23;;;;;;;0.00;0.00;;;;;;;;;;5037424;28;20045;-89
2022/07/24 04:54:49;;;;;;;0.00;0.00;;;;;;;;;;5037263;28;20064;-87
2022/07/24 04:57:15;;;;;;;0.13;0.13;;;;;;;;;;5036329;28;20045;-87
2022/07/24 04:59:43;;;;;;;0.20;0.20;;;;;;;;;;5036931;28;20513;-87
2022/07/24 05:02:09;;;;;;;0.10;0.10;;;;;;;;;;5037170;28;20525;-88
2022/07/24 05:04:35;;;;;;;0.20;0.20;;;;;;;;;;5036426;28;20049;-87
2022/07/24 05:07:01;;;;;;;0.10;0.10;;;;;;;;;;5018640;28;20042;-88
2022/07/24 05:09:28;;;;;;;0.20;0.20;;;;;;;;;;5036627;28;20049;-87
2022/07/24 05:11:54;;;;;;;0.10;0.10;;;;;;;;;;5036443;28;20045;-86
2022/07/24 05:14:22;;;;;;;0.05;0.05;;;;;;;;;;5036056;28;20045;-87
2022/07/24 05:16:48;;;;;;;0.20;0.20;;;;;;;;;;5035250;28;20025;-88
2022/07/24 05:19:14;;;;;;;0.05;0.05;;;;;;;;;;5035372;28;20052;-89
2022/07/24 05:21:40;;;;;;;0.20;0.20;;;;;;;;;;5035890;28;20084;-89
2022/07/24 05:24:06;;;;;;;0.00;0.00;;;;;;;;;;5035571;28;20056;-88
2022/07/24 05:26:32;;;;;;;0.10;0.10;;;;;;;;;;5035954;28;20033;-88
2022/07/24 05:28:59;;;;;;;0.00;0.00;;;;;;;;;;5036285;28;20048;-88
2022/07/24 05:31:25;;;;;;;0.13;0.13;;;;;;;;;;5036196;28;20045;-88
2022/07/24 05:33:51;;;;;;;0.05;0.05;;;;;;;;;;5003334;28;20049;-87
2022/07/24 05:36:18;;;;;;;0.20;0.20;;;;;;;;;;5035858;28;20041;-88
2022/07/24 05:38:44;;;;;;;0.00;0.00;;;;;;;;;;5035658;28;20041;-88
2022/07/24 05:41:13;;;;;;;0.05;0.05;;;;;;;;;;5035277;28;20037;-89
2022/07/24 05:43:39;;;;;;;0.10;0.10;;;;;;;;;;5035772;28;20037;-88
2022/07/24 05:46:05;;;;;;;0.00;0.00;;;;;;;;;;5036208;28;20048;-88
2022/07/24 05:48:32;;;;;;;0.05;0.05;;;;;;;;;;5035917;28;20053;-88
2022/07/24 05:50:59;;;;;;;0.03;0.03;;;;;;;;;;5035763;28;20098;-88
2022/07/24 05:53:25;;;;;;;0.10;0.10;;;;;;;;;;5034676;28;20037;-88
2022/07/24 05:55:51;;;;;;;0.00;0.00;;;;;;;;;;5035415;28;20052;-88
2022/07/24 05:58:17;;;;;;;0.10;0.10;;;;;;;;;;5036203;28;20049;-88
2022/07/24 06:00:44;;;;;;;0.10;0.10;;;;;;;;;;5035539;28;20429;-88
2022/07/24 06:03:10;;;;;;;0.10;0.10;;;;;;;;;;5003473;28;20038;-87
2022/07/24 06:05:36;;;;;;;0.10;0.10;;;;;;;;;;5035047;28;20033;-88
2022/07/24 06:08:02;;;;;;;0.20;0.20;;;;;;;;;;5035118;28;20128;-88
2022/07/24 06:10:29;;;;;;;0.00;0.00;;;;;;;;;;5036312;28;20049;-88
2022/07/24 06:12:55;;;;;;;0.10;0.10;;;;;;;;;;5036743;28;20045;-89
2022/07/24 06:15:21;;;;;;;0.10;0.10;;;;;;;;;;5035811;28;20045;-89
2022/07/24 06:17:47;;;;;;;0.10;0.10;;;;;;;;;;5035692;28;20041;-87
2022/07/24 06:20:13;;;;;;;0.00;0.00;;;;;;;;;;5035937;28;20040;-87
2022/07/24 06:22:40;;;;;;;0.10;0.10;;;;;;;;;;5035057;28;20041;-87
2022/07/24 06:25:07;;;;;;;0.03;0.03;;;;;;;;;;5035726;28;20496;-87
2022/07/24 06:27:33;;;;;;;0.20;0.20;;;;;;;;;;5034976;28;20045;-89
2022/07/24 06:29:59;;;;;;;0.20;0.20;;;;;;;;;;5035945;28;20045;-88
2022/07/24 06:32:25;;;;;;;0.08;0.08;;;;;;;;;;5035367;28;20046;-88
2022/07/24 06:34:52;;;;;;;0.10;0.10;;;;;;;;;;5035664;28;20564;-88
2022/07/24 06:37:19;;;;;;;0.00;0.00;;;;;;;;;;5035501;28;20045;-89
2022/07/24 06:39:45;;;;;;;0.10;0.10;;;;;;;;;;5035122;28;20033;-88
2022/07/24 06:42:12;;;;;;;0.00;0.00;;;;;;;;;;5036026;28;20033;-89
2022/07/24 06:44:41;;;;;;;0.00;0.00;;;;;;;;;;5035773;28;20069;-88
2022/07/24 06:47:07;;;;;;;0.10;0.10;;;;;;;;;;5035085;28;20098;-89
2022/07/24 06:49:33;;;;;;;0.05;0.05;;;;;;;;;;5035279;28;20443;-88
2022/07/24 06:51:59;;;;;;;0.10;0.10;;;;;;;;;;5034902;28;20095;-89
2022/07/24 06:54:25;;;;;;;0.10;0.10;;;;;;;;;;5035474;28;20073;-88
2022/07/24 06:56:51;;;;;;;0.20;0.20;;;;;;;;;;5036323;28;20072;-89
2022/07/24 06:59:17;;;;;;;0.10;0.10;;;;;;;;;;5034593;28;20072;-90
2022/07/24 07:01:43;;;;;;;0.03;0.03;;;;;;;;;;5036512;28;20033;-88
2022/07/24 07:04:09;;;;;;;0.10;0.10;;;;;;;;;;5035919;28;20101;-86
2022/07/24 07:06:35;;;;;;;0.10;0.10;;;;;;;;;;5036762;28;20037;-88
2022/07/24 07:09:01;;;;;;;0.13;0.13;;;;;;;;;;5036784;28;20045;-89
2022/07/24 07:11:27;;;;;;;0.10;0.10;;;;;;;;;;5036021;28;20328;-90
2022/07/24 07:13:53;;;;;;;0.10;0.10;;;;;;;;;;5035763;28;20119;-89
2022/07/24 07:16:19;;;;;;;0.00;0.00;;;;;;;;;;5035630;28;20049;-89
2022/07/24 07:18:45;;;;;;;0.00;0.00;;;;;;;;;;5034251;28;20091;-87
2022/07/24 07:21:11;;;;;;;0.10;0.10;;;;;;;;;;5034583;28;20526;-89
2022/07/24 07:23:37;;;;;;;0.10;0.10;;;;;;;;;;5034748;28;20034;-87
2022/07/24 07:26:03;;;;;;;0.00;0.00;;;;;;;;;;5034597;28;20048;-88
2022/07/24 07:28:30;;;;;;;0.10;0.10;;;;;;;;;;5036651;28;20046;-88
2022/07/24 07:30:56;;;;;;;0.08;0.08;;;;;;;;;;5038460;28;20041;-89
2022/07/24 07:33:23;;;;;;;0.10;0.10;;;;;;;;;;5039392;28;20045;-88
2022/07/24 07:35:49;;;;;;;0.10;0.10;;;;;;;;;;5023608;28;20072;-87
2022/07/24 07:38:15;;;;;;;0.10;0.10;;;;;;;;;;5024239;28;20041;-88
2022/07/24 07:40:43;;;;;;;0.20;0.20;;;;;;;;;;5039690;28;20041;-90
2022/07/24 07:43:10;;;;;;;0.10;0.10;;;;;;;;;;5040917;28;20081;-88
2022/07/24 07:45:36;;;;;;;0.00;0.00;;;;;;;;;;5039924;28;20033;-88
2022/07/24 07:48:02;;;;;;;0.10;0.10;;;;;;;;;;5038961;28;20041;-88
2022/07/24 07:50:29;;;;;;;0.03;0.03;;;;;;;;;;5039710;28;20041;-88
2022/07/24 07:52:55;;;;;;;0.03;0.03;;;;;;;;;;5008313;28;20124;-87
2022/07/24 07:55:21;;;;;;;0.00;0.00;;;;;;;;;;5041595;28;20052;-88
2022/07/24 07:57:47;;;;;;;0.20;0.20;;;;;;;;;;5041019;28;20045;-90
2022/07/24 08:00:13;;;;;;;0.10;0.10;;;;;;;;;;5040342;28;20099;-89
2022/07/24 08:02:42;;;;;;;0.20;0.20;;;;;;;;;;5038022;28;20037;-90
2022/07/24 08:05:09;;;;;;;0.08;0.08;;;;;;;;;;5041948;28;20049;-90
2022/07/24 08:07:35;;;;;;;0.10;0.10;;;;;;;;;;5024466;28;20044;-89
2022/07/24 08:10:02;;;;;;;0.00;0.00;;;;;;;;;;5024130;28;20049;-89
2022/07/24 08:12:28;;;;;;;0.10;0.10;;;;;;;;;;5042213;28;20048;-90
2022/07/24 08:14:54;;;;;;;0.00;0.00;;;;;;;;;;5040483;28;20053;-88
2022/07/24 08:17:20;;;;;;;0.10;0.10;;;;;;;;;;5041060;28;20042;-89
2022/07/24 08:19:46;;;;;;;0.08;0.08;;;;;;;;;;5042823;28;20136;-93
2022/07/24 08:22:16;;;;;;;0.10;0.10;;;;;;;;;;5042367;28;20037;-89
2022/07/24 08:24:42;;;;;;;0.10;0.10;;;;;;;;;;5024629;28;20076;-89
2022/07/24 08:27:08;;;;;;;0.00;0.00;;;;;;;;;;5024720;28;20033;-89
2022/07/24 08:29:34;;;;;;;0.00;0.00;;;;;;;;;;5041762;28;20102;-88
2022/07/24 08:32:00;;;;;;;0.00;0.00;;;;;;;;;;5024027;28;20069;-89
2022/07/24 08:34:26;;;;;;;0.00;0.00;;;;;;;;;;5038903;28;20087;-89
2022/07/24 08:36:52;;;;;;;0.03;0.03;;;;;;;;;;5039616;28;20042;-90
2022/07/24 08:39:19;;;;;;;0.10;0.10;;;;;;;;;;5023671;28;20041;-88
2022/07/24 08:41:45;;;;;;;0.00;0.00;;;;;;;;;;5039192;28;20093;-89
2022/07/24 08:44:11;;;;;;;0.00;0.00;;;;;;;;;;5039771;28;20124;-88
2022/07/24 08:46:41;;;;;;;0.00;0.00;;;;;;;;;;5006509;28;20056;-89
2022/07/24 08:49:08;;;;;;;0.10;0.10;;;;;;;;;;5004481;28;20037;-88
2022/07/24 08:51:35;;;;;;;0.10;0.10;;;;;;;;;;5022100;28;20037;-88
2022/07/24 08:54:08;;;;;;;0.10;0.10;;;;;;;;;;5038612;28;20041;-92
2022/07/24 08:56:36;;;;;;;0.10;0.10;;;;;;;;;;5020680;28;20046;-90
2022/07/24 08:59:02;;;;;;;0.05;0.05;;;;;;;;;;5022776;28;20542;-89
2022/07/24 09:01:28;;;;;;;0.10;0.10;;;;;;;;;;5019488;28;20041;-88
2022/07/24 09:03:55;;;;;;;0.00;0.00;;;;;;;;;;5012661;28;20033;-88
2022/07/24 09:06:21;;;;;;;0.08;0.08;;;;;;;;;;5020017;28;20034;-89
2022/07/24 09:09:02;;;;;;;0.10;0.10;;;;;;;;;;5039063;28;20045;-88
2022/07/24 09:11:29;;;;;;;0.00;0.00;;;;;;;;;;5022444;28;20131;-88
2022/07/24 09:16:45;;;;;;;0.00;0.00;;;;;;;;;;5036117;28;20102;-89
2022/07/24 09:19:15;;;;;;;0.00;0.00;;;;;;;;;;5038388;28;20116;-88
2022/07/24 09:21:44;;;;;;;0.10;0.10;;;;;;;;;;5021649;28;20037;-91
2022/07/24 09:24:14;;;;;;;0.00;0.00;;;;;;;;;;5015640;28;20026;-88
2022/07/24 09:26:44;;;;;;;0.00;0.00;;;;;;;;;;5039874;28;20179;-87
2022/07/24 09:29:12;;;;;;;0.10;0.10;;;;;;;;;;5020337;28;20064;-88
2022/07/24 09:31:57;;;;;;;0.10;0.10;;;;;;;;;;5039584;28;20554;-89
2022/07/24 09:34:28;;;;;;;0.00;0.00;;;;;;;;;;5022835;28;20072;-88
2022/07/24 09:37:05;;;;;;;0.03;0.03;;;;;;;;;;5022616;28;20045;-88
2022/07/24 09:39:33;;;;;;;0.00;0.00;;;;;;;;;;5018359;28;20044;-88
2022/07/24 09:42:00;;;;;;;0.10;0.10;;;;;;;;;;5035587;28;20047;-91
2022/07/24 09:44:26;;;;;;;0.00;0.00;;;;;;;;;;5005165;28;20060;-89
2022/07/24 09:46:56;;;;;;;0.00;0.00;;;;;;;;;;5038505;28;20041;-89
2022/07/24 09:49:23;;;;;;;0.10;0.10;;;;;;;;;;5038246;28;20045;-87
2022/07/24 09:52:12;;;;;;;0.10;0.10;;;;;;;;;;5023284;28;20048;-89
2022/07/24 09:54:42;;;;;;;0.05;0.05;;;;;;;;;;5023124;28;20042;-88
2022/07/24 09:57:17;;;;;;;0.10;0.10;;;;;;;;;;5039482;28;20045;-88
2022/07/24 09:59:44;;;;;;;0.00;0.00;;;;;;;;;;5022419;28;20048;-88
2022/07/24 10:02:13;;;;;;;0.00;0.00;;;;;;;;;;5038614;28;20045;-89
2022/07/24 10:04:41;;;;;;;0.00;0.00;;;;;;;;;;5040433;28;20090;-90
2022/07/24 10:07:09;;;;;;;0.00;0.00;;;;;;;;;;5039302;28;20038;-88
2022/07/24 10:09:36;;;;;;;0.00;0.00;;;;;;;;;;5038658;28;20064;-89
2022/07/24 10:12:04;;;;;;;0.08;0.08;;;;;;;;;;5040812;28;20399;-90
2022/07/24 10:14:30;;;;;;;0.00;0.00;;;;;;;;;;5040836;28;20076;-92
2022/07/24 10:17:06;;;;;;;0.00;0.00;;;;;;;;;;5040555;28;20085;-91
2022/07/24 10:19:40;;;;;;;0.10;0.10;;;;;;;;;;5020364;28;20037;-92
2022/07/24 10:22:10;;;;;;;0.10;0.10;;;;;;;;;;5041185;28;20041;-91
2022/07/24 10:24:48;;;;;;;0.00;0.00;;;;;;;;;;5024556;28;20037;-92
2022/07/24 10:27:29;;;;;;;0.00;0.00;;;;;;;;;;5024970;28;20091;-92
2022/07/24 10:29:56;;;;;;;0.00;0.00;;;;;;;;;;5042941;28;20048;-90
2022/07/24 10:32:24;;;;;;;0.00;0.00;;;;;;;;;;5024559;28;20037;-90
2022/07/24 10:35:04;;;;;;;0.10;0.10;;;;;;;;;;5040724;28;20034;-90
2022/07/24 10:37:40;;;;;;;0.10;0.10;;;;;;;;;;5024985;28;20038;-92
2022/07/24 10:40:15;;;;;;;0.10;0.10;;;;;;;;;;5012715;28;20048;-90
2022/07/24 10:43:00;;;;;;;0.10;0.10;;;;;;;;;;5040407;28;20037;-91
2022/07/24 10:45:29;;;;;;;;;;;;;;;;;;5040638;28;20132;-91
2022/07/24 10:47:55;;;;;;;0.10;0.10;;;;;;;;;;5022936;28;19991;-91
2022/07/24 10:50:24;;;;;;;0.10;0.10;;;;;;;;;;5039847;28;20485;-93
2022/07/24 10:52:50;;;;;;;0.00;0.00;;;;;;;;;;5025381;28;20049;-89
2022/07/24 10:55:20;;;;;;;0.00;0.00;;;;;;;;;;5021581;28;20038;-89
2022/07/24 10:58:09;;;;;;;0.00;0.00;;;;;;;;;;5022823;28;20065;-90
2022/07/24 11:00:37;;;;;;;0.00;0.00;;;;;;;;;;5018480;28;20101;-90
2022/07/24 11:03:23;;;;;;;0.10;0.10;;;;;;;;;;5038358;28;20041;-91
2022/07/24 11:06:06;;;;;;;0.10;0.10;;;;;;;;;;5043003;28;20037;-91
2022/07/24 11:08:33;;;;;;;0.10;0.10;;;;;;;;;;5024805;28;20154;-91
2022/07/24 11:11:20;;;;;;;0.00;0.00;;;;;;;;;;5028002;28;20183;-89
2022/07/24 11:13:48;;;;;;;0.00;0.00;;;;;;;;;;5018232;28;20041;-91
2022/07/24 11:16:18;;;;;;;0.10;0.10;;;;;;;;;;5029298;28;20099;-91
2022/07/24 11:18:47;;;;;;;0.00;0.00;;;;;;;;;;5028385;28;20038;-91
2022/07/24 11:21:28;;;;;;;0.00;0.00;;;;;;;;;;5042067;28;20034;-92
2022/07/24 11:24:12;;;;;;;0.00;0.00;;;;;;;;;;5028654;28;20090;-89
2022/07/24 11:26:40;;;;;;;;;;;;;;;;;;5028503;28;20038;-90
2022/07/24 11:29:26;;;;;;;0.00;0.00;;;;;;;;;;5028631;28;19939;-90
2022/07/24 11:31:55;;;;;;;0.00;0.00;;;;;;;;;;5024420;28;20046;-91
2022/07/24 11:34:22;;;;;;;0.10;0.10;;;;;;;;;;5027458;28;20041;-91
2022/07/24 11:36:49;;;;;;;0.10;0.10;;;;;;;;;;5043451;28;20100;-91
2022/07/24 11:39:16;;;;;;;0.10;0.10;;;;;;;;;;5044740;28;20100;-91
2022/07/24 11:41:51;;;;;;;0.05;0.05;;;;;;;;;;5045118;28;20045;-91
2022/07/24 11:44:25;;;;;;;0.00;0.00;;;;;;;;;;5027990;28;20037;-91
2022/07/24 11:46:51;;;;;;;0.00;0.00;;;;;;;;;;5029074;28;20553;-90
2022/07/24 11:49:17;;;;;;;0.08;0.08;;;;;;;;;;5012660;28;20424;-94
2022/07/24 11:51:44;;;;;;;0.00;0.00;;;;;;;;;;5043272;28;20071;-90
2022/07/24 11:54:15;;;;;;;0.00;0.00;;;;;;;;;;5045872;28;20533;-90
2022/07/24 11:56:42;;;;;;;0.00;0.00;;;;;;;;;;5044416;28;20041;-90
2022/07/24 11:59:28;;;;;;;0.10;0.10;;;;;;;;;;5029437;28;20041;-92
2022/07/24 12:01:56;;;;;;;0.10;0.10;;;;;;;;;;5027575;28;20041;-91
2022/07/24 12:04:22;;;;;;;0.10;0.10;;;;;;;;;;5026040;28;20124;-91
2022/07/24 12:06:48;;;;;;;0.10;0.10;;;;;;;;;;5026788;28;20076;-91
2022/07/24 12:09:15;;;;;;;0.10;0.10;;;;;;;;;;5045113;28;20049;-91
2022/07/24 12:11:41;;;;;;;0.00;0.00;;;;;;;;;;5045662;28;20041;-92
2022/07/24 12:14:15;;;;;;;0.00;0.00;;;;;;;;;;5045781;28;20056;-91
2022/07/24 12:16:41;;;;;;;0.00;0.00;;;;;;;;;;5024291;28;20342;-90
2022/07/24 12:19:29;;;;;;;0.00;0.00;;;;;;;;;;5019553;28;20038;-90
2022/07/24 12:21:56;;;;;;;0.17;0.17;;;;;;;;;;5041773;28;20029;-90
2022/07/24 12:24:22;;;;;;;0.10;0.10;;;;;;;;;;5028621;28;20041;-91
2022/07/24 12:26:52;;;;;;;0.00;0.00;;;;;;;;;;5045020;28;20113;-93
2022/07/24 12:29:18;;;;;;;0.10;0.10;;;;;;;;;;5028829;28;20045;-92
2022/07/24 12:31:44;;;;;;;0.10;0.10;;;;;;;;;;5040769;28;20042;-91
2022/07/24 12:34:10;;;;;;;0.03;0.03;;;;;;;;;;5043284;28;20438;-91
2022/07/24 12:36:40;;;;;;;0.00;0.00;;;;;;;;;;5004964;28;20463;-90
2022/07/24 12:39:06;;;;;;;0.00;0.00;;;;;;;;;;5020210;28;20038;-91
2022/07/24 12:41:40;;;;;;;0.00;0.00;;;;;;;;;;5045731;28;20063;-91
2022/07/24 12:44:07;;;;;;;0.00;0.00;;;;;;;;;;5024718;28;20037;-91
2022/07/24 12:46:37;;;;;;;0.00;0.00;;;;;;;;;;5024654;28;20134;-91
2022/07/24 12:49:03;;;;;;;0.00;0.00;;;;;;;;;;5044362;28;20041;-90
2022/07/24 12:51:48;;;;;;;0.03;0.03;;;;;;;;;;5028645;28;20064;-90
2022/07/24 12:54:17;;;;;;;0.00;0.00;;;;;;;;;;5023875;28;20041;-90
2022/07/24 12:56:44;;;;;;;0.10;0.10;;;;;;;;;;5022914;28;20049;-93
2022/07/24 12:59:21;;;;;;;0.10;0.10;;;;;;;;;;5043689;28;20045;-90
2022/07/24 13:01:50;;;;;;;0.00;0.00;;;;;;;;;;5027833;28;20094;-93
2022/07/24 13:04:17;;;;;;;0.10;0.10;;;;;;;;;;5026701;28;20030;-91
2022/07/24 13:06:48;;;;;;;0.00;0.00;;;;;;;;;;5026588;28;20038;-91
2022/07/24 13:09:15;;;;;;;0.00;0.00;;;;;;;;;;5045022;28;20038;-93
2022/07/24 13:11:43;;;;;;;0.00;0.00;;;;;;;;;;5043977;28;20046;-90
2022/07/24 13:14:10;;;;;;;0.10;0.10;;;;;;;;;;5025596;28;20411;-92
2022/07/24 13:16:39;;;;;;;0.10;0.10;;;;;;;;;;5044703;28;20044;-92
2022/07/24 13:19:05;;;;;;;0.10;0.10;;;;;;;;;;5044723;28;20038;-92
2022/07/24 13:21:32;;;;;;;0.00;0.00;;;;;;;;;;5045182;28;20065;-92
2022/07/24 13:23:58;;;;;;;0.00;0.00;;;;;;;;;;5026169;28;20061;-93
2022/07/24 13:26:25;;;;;;;0.00;0.00;;;;;;;;;;5018634;28;20096;-92
2022/07/24 13:28:51;;;;;;;0.00;0.00;;;;;;;;;;5025716;28;20045;-91
2022/07/24 13:31:21;;;;;;;0.00;0.00;;;;;;;;;;5028479;28;20038;-92
2022/07/24 13:33:47;;;;;;;0.00;0.00;;;;;;;;;;5045986;28;20040;-94
2022/07/24 13:36:14;;;;;;;0.00;0.00;;;;;;;;;;5025779;28;20042;-93
2022/07/24 13:38:40;;;;;;;0.00;0.00;;;;;;;;;;5013204;28;20038;-91
2022/07/24 13:41:06;;;;;;;0.00;0.00;;;;;;;;;;5044241;28;20044;-90
2022/07/24 13:43:32;;;;;;;0.00;0.00;;;;;;;;;;5046188;28;20057;-91
2022/07/24 13:45:58;;;;;;;0.10;0.10;;;;;;;;;;5025979;28;20037;-92
2022/07/24 13:48:24;;;;;;;0.00;0.00;;;;;;;;;;5022199;28;20068;-93
2022/07/24 13:50:50;;;;;;;0.00;0.00;;;;;;;;;;5026476;28;20069;-91
2022/07/24 13:53:16;;;;;;;0.03;0.03;;;;;;;;;;5027523;28;20034;-91
2022/07/24 13:55:42;;;;;;;0.00;0.00;;;;;;;;;;5027080;28;20048;-93
2022/07/24 13:58:09;;;;;;;0.10;0.10;;;;;;;;;;5041357;28;20464;-90
2022/07/24 14:00:35;;;;;;;0.10;0.10;;;;;;;;;;5045912;28;20499;-91
2022/07/24 14:03:02;;;;;;;0.10;0.10;;;;;;;;;;5026544;28;20057;-93
2022/07/24 14:05:28;;;;;;;0.00;0.00;;;;;;;;;;5027697;28;20052;-92
2022/07/24 14:07:54;;;;;;;0.03;0.03;;;;;;;;;;5029173;28;20041;-92
2022/07/24 14:10:21;;;;;;;0.00;0.00;;;;;;;;;;5043848;28;20038;-90
2022/07/24 14:12:47;;;;;;;0.10;0.10;;;;;;;;;;5044818;28;20049;-92
2022/07/24 14:15:14;;;;;;;0.10;0.10;;;;;;;;;;5047151;28;20037;-92
2022/07/24 14:17:41;;;;;;;0.03;0.03;;;;;;;;;;5045042;28;20099;-92
2022/07/24 14:20:07;;;;;;;0.10;0.10;;;;;;;;;;5046090;28;20120;-93
2022/07/24 14:22:34;;;;;;;0.10;0.10;;;;;;;;;;5029335;28;20040;-93
2022/07/24 14:25:00;;;;;;;0.00;0.00;;;;;;;;;;5029296;28;20506;-94
2022/07/24 14:27:27;;;;;;;0.00;0.00;;;;;;;;;;5026077;28;20411;-94
2022/07/24 14:29:54;;;;;;;0.00;0.00;;;;;;;;;;5017527;28;20140;-93
2022/07/24 14:32:20;;;;;;;0.00;0.00;;;;;;;;;;5009828;28;20079;-93
2022/07/24 14:34:46;;;;;;;0.10;0.10;;;;;;;;;;5021281;28;20076;-92
2022/07/24 14:37:13;;;;;;;0.10;0.10;;;;;;;;;;5021488;28;20041;-92
2022/07/24 14:39:39;;;;;;;0.10;0.10;;;;;;;;;;5039123;28;20045;-90
2022/07/24 14:42:06;;;;;;;0.10;0.10;;;;;;;;;;5022444;28;20037;-92
2022/07/24 14:44:32;;;;;;;0.10;0.10;;;;;;;;;;5020849;28;20045;-93
2022/07/24 14:47:04;;;;;;;0.00;0.00;;;;;;;;;;5000217;28;20041;-91
2022/07/24 14:49:31;;;;;;;0.10;0.10;;;;;;;;;;5023536;28;20037;-92